Rechercher aéroport 
image banner adimage banner adimage banner ad
image banner ad

CA97 - Christy Airstrip

Situé à Santa Barbara, United States

ICAO - CA97, IATA -

Données fournies par Airmate  

Information générale

Coordonnées: N34°1'11" W119°51'10"
Élévation : 250 feet MSL.
Variation magnétique : 14° East
Voir autres Aéroports à California

Données opérationnelles

Special qualification required
Heure actuelle UTC:
Heure actuelle locale:
Météo à : KSBA - Santa Barbara Muni ( 45 km )
METAR: KSBA 020553Z AUTO 11006KT 10SM CLR 18/16 A3000 RMK AO2 SLP160 T01780156 10239 20172 53003 $
TAF: KSBA 020533Z 0206/0306 VRB03KT P6SM SKC FM021600 17005KT P6SM SKC FM022100 23008KT P6SM SKC FM030400 VRB03KT P6SM SKC
Voir NOTAMs / SUP AIP / TFR affectant cet aéroport [VIEW]
Fréquences de communication: [VIEW]

Pistes:

Identifiant RWYQFULongueur (ft)Largeur (ft)SurfaceLDA (ft)
09250750GRASS
27250750GRASS

Coordonnées de l'aéroport

Adresse: Santa Barbara United States

Vue satellite de CA97